sensor_id;sensor_type;location;lat;lon;timestamp;P1;durP1;ratioP1;P2;durP2;ratioP2
48941;SDS011;35340;52.378;4.648;2023-02-17T00:01:56;5.72;;;2.95;;
48941;SDS011;35340;52.378;4.648;2023-02-17T00:04:22;5.90;;;3.15;;
48941;SDS011;35340;52.378;4.648;2023-02-17T00:06:47;7.15;;;2.97;;
48941;SDS011;35340;52.378;4.648;2023-02-17T00:09:13;6.00;;;2.95;;
48941;SDS011;35340;52.378;4.648;2023-02-17T00:11:38;7.97;;;3.00;;
48941;SDS011;35340;52.378;4.648;2023-02-17T00:14:03;6.30;;;3.00;;
48941;SDS011;35340;52.378;4.648;2023-02-17T00:16:29;5.90;;;2.83;;
48941;SDS011;35340;52.378;4.648;2023-02-17T00:18:55;8.25;;;3.28;;
48941;SDS011;35340;52.378;4.648;2023-02-17T00:21:24;7.90;;;3.22;;
48941;SDS011;35340;52.378;4.648;2023-02-17T00:23:51;8.15;;;3.03;;
48941;SDS011;35340;52.378;4.648;2023-02-17T00:26:17;4.80;;;2.50;;
48941;SDS011;35340;52.378;4.648;2023-02-17T00:28:44;11.55;;;3.30;;
48941;SDS011;35340;52.378;4.648;2023-02-17T00:31:15;5.50;;;3.10;;
48941;SDS011;35340;52.378;4.648;2023-02-17T00:33:42;6.75;;;3.00;;
48941;SDS011;35340;52.378;4.648;2023-02-17T00:36:10;6.43;;;3.30;;
48941;SDS011;35340;52.378;4.648;2023-02-17T00:38:36;5.20;;;2.85;;
48941;SDS011;35340;52.378;4.648;2023-02-17T00:41:02;6.32;;;2.70;;
48941;SDS011;35340;52.378;4.648;2023-02-17T00:43:28;6.13;;;3.10;;
48941;SDS011;35340;52.378;4.648;2023-02-17T00:45:54;5.05;;;2.85;;
48941;SDS011;35340;52.378;4.648;2023-02-17T00:48:19;7.93;;;3.05;;
48941;SDS011;35340;52.378;4.648;2023-02-17T00:50:45;6.60;;;3.30;;
48941;SDS011;35340;52.378;4.648;2023-02-17T00:53:10;5.10;;;2.58;;
48941;SDS011;35340;52.378;4.648;2023-02-17T00:55:36;5.30;;;2.70;;
48941;SDS011;35340;52.378;4.648;2023-02-17T00:58:01;6.15;;;2.88;;
48941;SDS011;35340;52.378;4.648;2023-02-17T01:00:27;5.22;;;2.85;;
48941;SDS011;35340;52.378;4.648;2023-02-17T01:02:52;5.47;;;2.63;;
48941;SDS011;35340;52.378;4.648;2023-02-17T01:05:17;6.03;;;2.88;;
48941;SDS011;35340;52.378;4.648;2023-02-17T01:07:43;5.20;;;2.95;;
48941;SDS011;35340;52.378;4.648;2023-02-17T01:10:08;6.70;;;3.03;;
48941;SDS011;35340;52.378;4.648;2023-02-17T01:12:34;6.05;;;2.97;;
48941;SDS011;35340;52.378;4.648;2023-02-17T01:15:00;4.95;;;2.58;;
48941;SDS011;35340;52.378;4.648;2023-02-17T01:17:25;6.15;;;2.78;;
48941;SDS011;35340;52.378;4.648;2023-02-17T01:19:51;5.45;;;2.80;;
48941;SDS011;35340;52.378;4.648;2023-02-17T01:22:16;5.82;;;2.70;;
48941;SDS011;35340;52.378;4.648;2023-02-17T01:24:42;5.03;;;2.67;;
48941;SDS011;35340;52.378;4.648;2023-02-17T01:27:07;4.75;;;2.60;;
48941;SDS011;35340;52.378;4.648;2023-02-17T01:29:32;3.70;;;2.38;;
48941;SDS011;35340;52.378;4.648;2023-02-17T01:31:58;6.25;;;2.90;;
48941;SDS011;35340;52.378;4.648;2023-02-17T01:34:23;4.75;;;2.75;;
48941;SDS011;35340;52.378;4.648;2023-02-17T01:36:49;4.45;;;2.55;;
48941;SDS011;35340;52.378;4.648;2023-02-17T01:39:14;5.85;;;3.00;;
48941;SDS011;35340;52.378;4.648;2023-02-17T01:41:41;5.10;;;2.78;;
48941;SDS011;35340;52.378;4.648;2023-02-17T01:44:15;4.80;;;2.63;;
48941;SDS011;35340;52.378;4.648;2023-02-17T01:46:44;4.45;;;2.55;;
48941;SDS011;35340;52.378;4.648;2023-02-17T01:51:56;5.53;;;2.72;;
48941;SDS011;35340;52.378;4.648;2023-02-17T01:54:28;4.63;;;2.28;;
48941;SDS011;35340;52.378;4.648;2023-02-17T01:56:59;3.73;;;2.43;;
48941;SDS011;35340;52.378;4.648;2023-02-17T01:59:26;4.75;;;2.60;;
48941;SDS011;35340;52.378;4.648;2023-02-17T02:01:54;4.32;;;2.30;;
48941;SDS011;35340;52.378;4.648;2023-02-17T02:04:23;3.00;;;2.20;;
48941;SDS011;35340;52.378;4.648;2023-02-17T02:06:51;5.15;;;2.35;;
48941;SDS011;35340;52.378;4.648;2023-02-17T02:09:18;5.18;;;2.60;;
48941;SDS011;35340;52.378;4.648;2023-02-17T02:11:47;3.50;;;2.10;;
48941;SDS011;35340;52.378;4.648;2023-02-17T02:14:16;4.13;;;2.35;;
48941;SDS011;35340;52.378;4.648;2023-02-17T02:22:57;4.00;;;2.45;;
48941;SDS011;35340;52.378;4.648;2023-02-17T02:31:52;4.15;;;2.28;;
48941;SDS011;35340;52.378;4.648;2023-02-17T02:34:28;5.80;;;2.33;;
48941;SDS011;35340;52.378;4.648;2023-02-17T02:37:03;3.85;;;2.10;;
48941;SDS011;35340;52.378;4.648;2023-02-17T02:39:37;5.47;;;2.17;;
48941;SDS011;35340;52.378;4.648;2023-02-17T02:42:07;3.50;;;2.05;;
48941;SDS011;35340;52.378;4.648;2023-02-17T02:44:37;3.50;;;1.75;;
48941;SDS011;35340;52.378;4.648;2023-02-17T02:47:03;3.15;;;1.85;;
48941;SDS011;35340;52.378;4.648;2023-02-17T02:49:32;4.10;;;2.20;;
48941;SDS011;35340;52.378;4.648;2023-02-17T03:07:55;3.45;;;2.10;;
48941;SDS011;35340;52.378;4.648;2023-02-17T03:10:33;3.28;;;2.00;;
48941;SDS011;35340;52.378;4.648;2023-02-17T03:13:00;3.70;;;1.95;;
48941;SDS011;35340;52.378;4.648;2023-02-17T03:15:27;4.13;;;2.30;;
48941;SDS011;35340;52.378;4.648;2023-02-17T03:17:56;3.13;;;1.92;;
48941;SDS011;35340;52.378;4.648;2023-02-17T03:20:22;3.60;;;1.80;;
48941;SDS011;35340;52.378;4.648;2023-02-17T03:22:49;3.33;;;1.92;;
48941;SDS011;35340;52.378;4.648;2023-02-17T03:25:15;2.80;;;1.80;;
48941;SDS011;35340;52.378;4.648;2023-02-17T03:27:40;3.22;;;1.92;;
48941;SDS011;35340;52.378;4.648;2023-02-17T03:30:06;3.90;;;1.88;;
48941;SDS011;35340;52.378;4.648;2023-02-17T03:32:33;2.92;;;1.92;;
48941;SDS011;35340;52.378;4.648;2023-02-17T03:34:59;3.70;;;1.80;;
48941;SDS011;35340;52.378;4.648;2023-02-17T03:37:24;4.20;;;1.88;;
48941;SDS011;35340;52.378;4.648;2023-02-17T03:39:50;3.72;;;1.80;;
48941;SDS011;35340;52.378;4.648;2023-02-17T03:42:15;4.15;;;2.17;;
48941;SDS011;35340;52.378;4.648;2023-02-17T03:44:40;3.38;;;1.80;;
48941;SDS011;35340;52.378;4.648;2023-02-17T03:47:06;3.75;;;2.10;;
48941;SDS011;35340;52.378;4.648;2023-02-17T03:49:31;3.67;;;2.08;;
48941;SDS011;35340;52.378;4.648;2023-02-17T03:51:57;5.03;;;2.50;;
48941;SDS011;35340;52.378;4.648;2023-02-17T03:54:23;3.35;;;1.88;;
48941;SDS011;35340;52.378;4.648;2023-02-17T03:56:49;3.88;;;2.10;;
48941;SDS011;35340;52.378;4.648;2023-02-17T03:59:15;3.22;;;1.75;;
48941;SDS011;35340;52.378;4.648;2023-02-17T04:01:40;3.42;;;2.03;;
48941;SDS011;35340;52.378;4.648;2023-02-17T04:04:05;4.25;;;2.13;;
48941;SDS011;35340;52.378;4.648;2023-02-17T04:06:31;3.33;;;2.03;;
48941;SDS011;35340;52.378;4.648;2023-02-17T04:08:56;4.05;;;2.22;;
48941;SDS011;35340;52.378;4.648;2023-02-17T04:11:22;2.63;;;1.90;;
48941;SDS011;35340;52.378;4.648;2023-02-17T04:13:47;3.35;;;2.08;;
48941;SDS011;35340;52.378;4.648;2023-02-17T04:16:12;4.45;;;2.00;;
48941;SDS011;35340;52.378;4.648;2023-02-17T04:18:38;3.83;;;2.10;;
48941;SDS011;35340;52.378;4.648;2023-02-17T04:21:03;3.08;;;1.83;;
48941;SDS011;35340;52.378;4.648;2023-02-17T04:23:29;2.95;;;1.75;;
48941;SDS011;35340;52.378;4.648;2023-02-17T04:25:55;3.78;;;2.10;;
48941;SDS011;35340;52.378;4.648;2023-02-17T04:28:21;4.43;;;2.05;;
48941;SDS011;35340;52.378;4.648;2023-02-17T04:30:47;2.75;;;1.52;;
48941;SDS011;35340;52.378;4.648;2023-02-17T04:33:14;3.72;;;1.77;;
48941;SDS011;35340;52.378;4.648;2023-02-17T04:35:40;3.80;;;1.80;;
48941;SDS011;35340;52.378;4.648;2023-02-17T04:38:06;4.30;;;2.08;;
48941;SDS011;35340;52.378;4.648;2023-02-17T04:40:32;3.55;;;1.90;;
48941;SDS011;35340;52.378;4.648;2023-02-17T04:42:58;3.72;;;1.67;;
48941;SDS011;35340;52.378;4.648;2023-02-17T04:45:23;4.32;;;1.77;;
48941;SDS011;35340;52.378;4.648;2023-02-17T04:47:49;3.05;;;1.60;;
48941;SDS011;35340;52.378;4.648;2023-02-17T04:50:15;3.58;;;1.50;;
48941;SDS011;35340;52.378;4.648;2023-02-17T04:52:41;4.45;;;1.50;;
48941;SDS011;35340;52.378;4.648;2023-02-17T04:55:06;2.95;;;1.50;;
48941;SDS011;35340;52.378;4.648;2023-02-17T04:57:33;3.63;;;1.70;;
48941;SDS011;35340;52.378;4.648;2023-02-17T04:59:58;4.50;;;1.63;;
48941;SDS011;35340;52.378;4.648;2023-02-17T05:02:24;2.88;;;1.50;;
48941;SDS011;35340;52.378;4.648;2023-02-17T05:04:51;3.42;;;1.63;;
48941;SDS011;35340;52.378;4.648;2023-02-17T05:07:17;2.88;;;1.55;;
48941;SDS011;35340;52.378;4.648;2023-02-17T05:09:43;4.25;;;2.03;;
48941;SDS011;35340;52.378;4.648;2023-02-17T05:12:08;4.43;;;1.90;;
48941;SDS011;35340;52.378;4.648;2023-02-17T05:14:33;3.15;;;1.35;;
48941;SDS011;35340;52.378;4.648;2023-02-17T05:16:59;4.70;;;1.80;;
48941;SDS011;35340;52.378;4.648;2023-02-17T05:19:24;4.40;;;1.63;;
48941;SDS011;35340;52.378;4.648;2023-02-17T05:21:49;4.97;;;1.85;;
48941;SDS011;35340;52.378;4.648;2023-02-17T05:24:15;3.88;;;1.75;;
48941;SDS011;35340;52.378;4.648;2023-02-17T05:26:41;3.95;;;1.65;;
48941;SDS011;35340;52.378;4.648;2023-02-17T05:29:06;4.55;;;1.60;;
48941;SDS011;35340;52.378;4.648;2023-02-17T05:31:32;6.80;;;1.73;;
48941;SDS011;35340;52.378;4.648;2023-02-17T05:33:57;2.67;;;1.45;;
48941;SDS011;35340;52.378;4.648;2023-02-17T05:36:23;5.43;;;1.70;;
48941;SDS011;35340;52.378;4.648;2023-02-17T05:38:48;3.55;;;1.80;;
48941;SDS011;35340;52.378;4.648;2023-02-17T05:41:15;4.25;;;1.70;;
48941;SDS011;35340;52.378;4.648;2023-02-17T05:43:41;3.72;;;1.77;;
48941;SDS011;35340;52.378;4.648;2023-02-17T05:46:06;4.45;;;1.80;;
48941;SDS011;35340;52.378;4.648;2023-02-17T05:48:32;3.53;;;1.42;;
48941;SDS011;35340;52.378;4.648;2023-02-17T05:50:58;3.70;;;1.60;;
48941;SDS011;35340;52.378;4.648;2023-02-17T05:53:23;3.17;;;1.48;;
48941;SDS011;35340;52.378;4.648;2023-02-17T05:55:49;5.55;;;1.60;;
48941;SDS011;35340;52.378;4.648;2023-02-17T05:58:14;4.80;;;1.60;;
48941;SDS011;35340;52.378;4.648;2023-02-17T06:00:40;6.32;;;1.88;;
48941;SDS011;35340;52.378;4.648;2023-02-17T06:03:05;3.13;;;1.48;;
48941;SDS011;35340;52.378;4.648;2023-02-17T06:05:31;2.97;;;1.70;;
48941;SDS011;35340;52.378;4.648;2023-02-17T06:07:56;4.82;;;1.88;;
48941;SDS011;35340;52.378;4.648;2023-02-17T06:10:22;3.67;;;1.80;;
48941;SDS011;35340;52.378;4.648;2023-02-17T06:12:47;3.25;;;1.45;;
48941;SDS011;35340;52.378;4.648;2023-02-17T06:15:12;6.95;;;1.70;;
48941;SDS011;35340;52.378;4.648;2023-02-17T06:17:38;3.97;;;1.77;;
48941;SDS011;35340;52.378;4.648;2023-02-17T06:20:03;4.22;;;1.55;;
48941;SDS011;35340;52.378;4.648;2023-02-17T06:22:29;4.10;;;1.70;;
48941;SDS011;35340;52.378;4.648;2023-02-17T06:24:55;3.63;;;1.63;;
48941;SDS011;35340;52.378;4.648;2023-02-17T06:27:20;4.85;;;1.77;;
48941;SDS011;35340;52.378;4.648;2023-02-17T06:29:46;3.97;;;1.40;;
48941;SDS011;35340;52.378;4.648;2023-02-17T06:32:11;5.90;;;1.50;;
48941;SDS011;35340;52.378;4.648;2023-02-17T06:34:37;6.30;;;1.80;;
48941;SDS011;35340;52.378;4.648;2023-02-17T06:37:02;3.38;;;1.50;;
48941;SDS011;35340;52.378;4.648;2023-02-17T06:39:27;4.20;;;1.70;;
48941;SDS011;35340;52.378;4.648;2023-02-17T06:41:53;2.72;;;1.63;;
48941;SDS011;35340;52.378;4.648;2023-02-17T06:44:19;3.92;;;1.60;;
48941;SDS011;35340;52.378;4.648;2023-02-17T06:46:44;3.40;;;1.70;;
48941;SDS011;35340;52.378;4.648;2023-02-17T06:49:11;5.43;;;1.80;;
48941;SDS011;35340;52.378;4.648;2023-02-17T06:51:36;3.88;;;1.90;;
48941;SDS011;35340;52.378;4.648;2023-02-17T06:54:02;7.45;;;2.35;;
48941;SDS011;35340;52.378;4.648;2023-02-17T06:56:27;6.68;;;2.20;;
48941;SDS011;35340;52.378;4.648;2023-02-17T06:58:53;6.07;;;2.58;;
48941;SDS011;35340;52.378;4.648;2023-02-17T07:01:20;7.20;;;2.53;;
48941;SDS011;35340;52.378;4.648;2023-02-17T07:03:50;6.30;;;2.50;;
48941;SDS011;35340;52.378;4.648;2023-02-17T07:06:16;6.13;;;2.65;;
48941;SDS011;35340;52.378;4.648;2023-02-17T07:08:41;4.43;;;2.40;;
48941;SDS011;35340;52.378;4.648;2023-02-17T07:11:07;5.07;;;2.47;;
48941;SDS011;35340;52.378;4.648;2023-02-17T07:13:35;6.68;;;2.65;;
48941;SDS011;35340;52.378;4.648;2023-02-17T07:16:00;8.00;;;2.47;;
48941;SDS011;35340;52.378;4.648;2023-02-17T07:18:26;5.93;;;2.40;;
48941;SDS011;35340;52.378;4.648;2023-02-17T07:20:52;6.25;;;2.22;;
48941;SDS011;35340;52.378;4.648;2023-02-17T07:23:17;3.67;;;1.75;;
48941;SDS011;35340;52.378;4.648;2023-02-17T07:25:42;4.82;;;2.20;;
48941;SDS011;35340;52.378;4.648;2023-02-17T07:28:08;5.45;;;2.03;;
48941;SDS011;35340;52.378;4.648;2023-02-17T07:30:37;4.68;;;2.80;;
48941;SDS011;35340;52.378;4.648;2023-02-17T07:33:03;4.13;;;2.13;;
48941;SDS011;35340;52.378;4.648;2023-02-17T07:35:29;4.90;;;2.30;;
48941;SDS011;35340;52.378;4.648;2023-02-17T07:37:58;4.90;;;2.00;;
48941;SDS011;35340;52.378;4.648;2023-02-17T07:40:25;4.90;;;2.17;;
48941;SDS011;35340;52.378;4.648;2023-02-17T07:42:51;4.07;;;2.08;;
48941;SDS011;35340;52.378;4.648;2023-02-17T07:45:17;4.32;;;1.90;;
48941;SDS011;35340;52.378;4.648;2023-02-17T07:47:43;3.72;;;2.00;;
48941;SDS011;35340;52.378;4.648;2023-02-17T07:50:08;4.20;;;2.13;;
48941;SDS011;35340;52.378;4.648;2023-02-17T07:52:34;3.92;;;1.77;;
48941;SDS011;35340;52.378;4.648;2023-02-17T07:55:00;5.75;;;2.00;;
48941;SDS011;35340;52.378;4.648;2023-02-17T07:57:25;3.85;;;2.08;;
48941;SDS011;35340;52.378;4.648;2023-02-17T07:59:50;4.95;;;2.20;;
48941;SDS011;35340;52.378;4.648;2023-02-17T08:02:16;3.60;;;1.90;;
48941;SDS011;35340;52.378;4.648;2023-02-17T08:04:42;4.57;;;2.30;;
48941;SDS011;35340;52.378;4.648;2023-02-17T08:07:15;4.72;;;2.17;;
48941;SDS011;35340;52.378;4.648;2023-02-17T08:09:54;4.97;;;2.22;;
48941;SDS011;35340;52.378;4.648;2023-02-17T08:12:38;4.03;;;1.90;;
48941;SDS011;35340;52.378;4.648;2023-02-17T08:17:47;3.05;;;1.90;;
48941;SDS011;35340;52.378;4.648;2023-02-17T08:20:12;4.28;;;1.98;;
48941;SDS011;35340;52.378;4.648;2023-02-17T08:22:39;3.78;;;2.25;;
48941;SDS011;35340;52.378;4.648;2023-02-17T08:25:05;4.25;;;2.00;;
48941;SDS011;35340;52.378;4.648;2023-02-17T08:27:30;4.28;;;1.98;;
48941;SDS011;35340;52.378;4.648;2023-02-17T08:29:56;4.63;;;1.73;;
48941;SDS011;35340;52.378;4.648;2023-02-17T08:32:21;6.20;;;2.30;;
48941;SDS011;35340;52.378;4.648;2023-02-17T08:34:47;5.38;;;2.17;;
48941;SDS011;35340;52.378;4.648;2023-02-17T08:37:12;5.20;;;1.90;;
48941;SDS011;35340;52.378;4.648;2023-02-17T08:39:37;4.75;;;1.95;;
48941;SDS011;35340;52.378;4.648;2023-02-17T08:42:03;4.28;;;2.03;;
48941;SDS011;35340;52.378;4.648;2023-02-17T08:44:29;5.38;;;1.90;;
48941;SDS011;35340;52.378;4.648;2023-02-17T08:46:57;3.92;;;1.95;;
48941;SDS011;35340;52.378;4.648;2023-02-17T08:49:23;3.55;;;1.83;;
48941;SDS011;35340;52.378;4.648;2023-02-17T08:51:50;4.95;;;1.90;;
48941;SDS011;35340;52.378;4.648;2023-02-17T08:54:17;4.57;;;1.90;;
48941;SDS011;35340;52.378;4.648;2023-02-17T08:56:43;3.35;;;1.80;;
48941;SDS011;35340;52.378;4.648;2023-02-17T08:59:09;2.80;;;1.65;;
48941;SDS011;35340;52.378;4.648;2023-02-17T09:01:36;3.45;;;1.92;;
48941;SDS011;35340;52.378;4.648;2023-02-17T09:04:02;4.88;;;1.80;;
48941;SDS011;35340;52.378;4.648;2023-02-17T09:06:33;3.15;;;1.77;;
48941;SDS011;35340;52.378;4.648;2023-02-17T09:09:04;4.45;;;1.88;;
48941;SDS011;35340;52.378;4.648;2023-02-17T09:11:30;3.45;;;2.00;;
48941;SDS011;35340;52.378;4.648;2023-02-17T09:13:56;3.63;;;1.67;;
48941;SDS011;35340;52.378;4.648;2023-02-17T09:16:22;3.08;;;1.67;;
48941;SDS011;35340;52.378;4.648;2023-02-17T09:18:49;4.03;;;2.00;;
48941;SDS011;35340;52.378;4.648;2023-02-17T09:21:15;3.53;;;1.85;;
48941;SDS011;35340;52.378;4.648;2023-02-17T09:23:41;5.80;;;1.67;;
48941;SDS011;35340;52.378;4.648;2023-02-17T09:26:08;3.03;;;1.40;;
48941;SDS011;35340;52.378;4.648;2023-02-17T09:28:35;3.10;;;1.60;;
48941;SDS011;35340;52.378;4.648;2023-02-17T09:31:12;3.20;;;1.48;;
48941;SDS011;35340;52.378;4.648;2023-02-17T09:33:41;2.92;;;1.48;;
48941;SDS011;35340;52.378;4.648;2023-02-17T09:36:07;3.22;;;1.67;;
48941;SDS011;35340;52.378;4.648;2023-02-17T09:38:36;3.58;;;1.70;;
48941;SDS011;35340;52.378;4.648;2023-02-17T09:41:49;3.22;;;1.67;;
48941;SDS011;35340;52.378;4.648;2023-02-17T09:46:51;2.63;;;1.45;;
48941;SDS011;35340;52.378;4.648;2023-02-17T09:49:25;3.20;;;1.60;;
48941;SDS011;35340;52.378;4.648;2023-02-17T09:52:37;3.85;;;1.80;;
48941;SDS011;35340;52.378;4.648;2023-02-17T09:57:25;3.22;;;1.73;;
48941;SDS011;35340;52.378;4.648;2023-02-17T09:59:54;3.80;;;1.60;;
48941;SDS011;35340;52.378;4.648;2023-02-17T10:05:01;2.90;;;1.60;;
48941;SDS011;35340;52.378;4.648;2023-02-17T10:07:35;2.58;;;1.30;;
48941;SDS011;35340;52.378;4.648;2023-02-17T10:10:17;2.88;;;1.63;;
48941;SDS011;35340;52.378;4.648;2023-02-17T10:12:50;3.50;;;2.08;;
48941;SDS011;35340;52.378;4.648;2023-02-17T10:15:22;4.03;;;1.83;;
48941;SDS011;35340;52.378;4.648;2023-02-17T10:18:03;3.15;;;1.55;;
48941;SDS011;35340;52.378;4.648;2023-02-17T10:20:39;3.58;;;1.60;;
48941;SDS011;35340;52.378;4.648;2023-02-17T10:23:16;4.07;;;1.58;;
48941;SDS011;35340;52.378;4.648;2023-02-17T10:31:55;3.35;;;1.50;;
48941;SDS011;35340;52.378;4.648;2023-02-17T10:39:57;4.13;;;1.60;;
48941;SDS011;35340;52.378;4.648;2023-02-17T10:42:35;3.78;;;1.75;;
48941;SDS011;35340;52.378;4.648;2023-02-17T10:45:15;3.55;;;1.70;;
48941;SDS011;35340;52.378;4.648;2023-02-17T10:48:07;3.75;;;1.70;;
48941;SDS011;35340;52.378;4.648;2023-02-17T10:50:39;4.30;;;1.75;;
48941;SDS011;35340;52.378;4.648;2023-02-17T10:58:18;5.18;;;2.03;;
48941;SDS011;35340;52.378;4.648;2023-02-17T11:00:51;3.80;;;1.80;;
48941;SDS011;35340;52.378;4.648;2023-02-17T11:03:25;4.63;;;1.80;;
48941;SDS011;35340;52.378;4.648;2023-02-17T11:05:59;4.65;;;1.60;;
48941;SDS011;35340;52.378;4.648;2023-02-17T11:08:33;3.70;;;1.90;;
48941;SDS011;35340;52.378;4.648;2023-02-17T11:11:11;2.97;;;1.55;;
48941;SDS011;35340;52.378;4.648;2023-02-17T11:16:26;3.40;;;1.73;;
48941;SDS011;35340;52.378;4.648;2023-02-17T11:18:56;4.63;;;2.00;;
48941;SDS011;35340;52.378;4.648;2023-02-17T11:21:22;3.35;;;1.75;;
48941;SDS011;35340;52.378;4.648;2023-02-17T11:23:58;5.10;;;2.15;;
48941;SDS011;35340;52.378;4.648;2023-02-17T11:26:29;4.55;;;1.80;;
48941;SDS011;35340;52.378;4.648;2023-02-17T11:29:10;4.03;;;2.00;;
48941;SDS011;35340;52.378;4.648;2023-02-17T11:31:41;4.00;;;1.75;;
48941;SDS011;35340;52.378;4.648;2023-02-17T11:34:22;4.50;;;1.80;;
48941;SDS011;35340;52.378;4.648;2023-02-17T11:42:12;4.38;;;2.03;;
48941;SDS011;35340;52.378;4.648;2023-02-17T11:44:38;4.88;;;1.92;;
48941;SDS011;35340;52.378;4.648;2023-02-17T11:52:51;3.47;;;1.52;;
48941;SDS011;35340;52.378;4.648;2023-02-17T11:55:31;6.78;;;1.88;;
48941;SDS011;35340;52.378;4.648;2023-02-17T12:09:05;4.72;;;1.77;;
48941;SDS011;35340;52.378;4.648;2023-02-17T12:11:50;5.43;;;2.03;;
48941;SDS011;35340;52.378;4.648;2023-02-17T12:22:44;6.88;;;1.92;;
48941;SDS011;35340;52.378;4.648;2023-02-17T12:25:39;5.68;;;1.95;;
48941;SDS011;35340;52.378;4.648;2023-02-17T12:36:34;3.70;;;1.92;;
48941;SDS011;35340;52.378;4.648;2023-02-17T12:39:10;4.18;;;2.00;;
48941;SDS011;35340;52.378;4.648;2023-02-17T12:44:43;4.90;;;1.67;;
48941;SDS011;35340;52.378;4.648;2023-02-17T12:50:05;4.53;;;1.90;;
48941;SDS011;35340;52.378;4.648;2023-02-17T12:52:43;4.90;;;1.60;;
48941;SDS011;35340;52.378;4.648;2023-02-17T13:00:24;4.38;;;1.85;;
48941;SDS011;35340;52.378;4.648;2023-02-17T13:02:58;4.90;;;2.00;;
48941;SDS011;35340;52.378;4.648;2023-02-17T13:05:29;4.80;;;1.80;;
48941;SDS011;35340;52.378;4.648;2023-02-17T13:10:45;5.63;;;1.90;;
48941;SDS011;35340;52.378;4.648;2023-02-17T13:16:12;3.47;;;1.60;;
48941;SDS011;35340;52.378;4.648;2023-02-17T13:18:42;4.70;;;2.13;;
48941;SDS011;35340;52.378;4.648;2023-02-17T13:24:05;4.55;;;1.55;;
48941;SDS011;35340;52.378;4.648;2023-02-17T13:26:39;5.10;;;1.98;;
48941;SDS011;35340;52.378;4.648;2023-02-17T13:31:42;5.07;;;2.00;;
48941;SDS011;35340;52.378;4.648;2023-02-17T13:34:25;5.43;;;2.05;;
48941;SDS011;35340;52.378;4.648;2023-02-17T13:37:18;4.45;;;1.80;;
48941;SDS011;35340;52.378;4.648;2023-02-17T13:39:49;4.35;;;2.08;;
48941;SDS011;35340;52.378;4.648;2023-02-17T13:45:13;4.70;;;1.77;;
48941;SDS011;35340;52.378;4.648;2023-02-17T13:47:39;4.50;;;1.90;;
48941;SDS011;35340;52.378;4.648;2023-02-17T13:50:24;4.15;;;2.05;;
48941;SDS011;35340;52.378;4.648;2023-02-17T13:52:53;3.97;;;1.70;;
48941;SDS011;35340;52.378;4.648;2023-02-17T13:55:19;5.70;;;1.92;;
48941;SDS011;35340;52.378;4.648;2023-02-17T13:57:50;5.47;;;1.80;;
48941;SDS011;35340;52.378;4.648;2023-02-17T14:00:21;6.30;;;1.90;;
48941;SDS011;35340;52.378;4.648;2023-02-17T14:05:36;5.63;;;2.00;;
48941;SDS011;35340;52.378;4.648;2023-02-17T14:08:07;5.05;;;2.28;;
48941;SDS011;35340;52.378;4.648;2023-02-17T14:10:38;5.95;;;2.17;;
48941;SDS011;35340;52.378;4.648;2023-02-17T14:13:04;4.47;;;2.17;;
48941;SDS011;35340;52.378;4.648;2023-02-17T14:15:34;5.28;;;2.00;;
48941;SDS011;35340;52.378;4.648;2023-02-17T14:18:13;5.07;;;2.13;;
48941;SDS011;35340;52.378;4.648;2023-02-17T14:20:58;4.68;;;2.17;;
48941;SDS011;35340;52.378;4.648;2023-02-17T14:23:46;5.32;;;2.08;;
48941;SDS011;35340;52.378;4.648;2023-02-17T14:29:11;4.65;;;2.28;;
48941;SDS011;35340;52.378;4.648;2023-02-17T14:31:42;4.75;;;2.00;;
48941;SDS011;35340;52.378;4.648;2023-02-17T14:34:27;4.65;;;2.15;;
48941;SDS011;35340;52.378;4.648;2023-02-17T14:36:54;4.32;;;2.00;;
48941;SDS011;35340;52.378;4.648;2023-02-17T14:39:30;5.72;;;2.15;;
48941;SDS011;35340;52.378;4.648;2023-02-17T14:41:56;5.15;;;2.10;;
48941;SDS011;35340;52.378;4.648;2023-02-17T14:44:21;4.97;;;2.10;;
48941;SDS011;35340;52.378;4.648;2023-02-17T14:46:47;5.20;;;2.00;;
48941;SDS011;35340;52.378;4.648;2023-02-17T14:49:12;5.43;;;2.20;;
48941;SDS011;35340;52.378;4.648;2023-02-17T14:51:38;5.18;;;1.77;;
48941;SDS011;35340;52.378;4.648;2023-02-17T14:54:13;4.38;;;1.95;;
48941;SDS011;35340;52.378;4.648;2023-02-17T14:56:42;5.43;;;2.20;;
48941;SDS011;35340;52.378;4.648;2023-02-17T14:59:29;4.28;;;1.90;;
48941;SDS011;35340;52.378;4.648;2023-02-17T15:01:54;5.82;;;1.98;;
48941;SDS011;35340;52.378;4.648;2023-02-17T15:04:20;6.60;;;2.28;;
48941;SDS011;35340;52.378;4.648;2023-02-17T15:06:46;6.50;;;2.08;;
48941;SDS011;35340;52.378;4.648;2023-02-17T15:09:15;6.35;;;2.20;;
48941;SDS011;35340;52.378;4.648;2023-02-17T15:11:43;5.63;;;2.25;;
48941;SDS011;35340;52.378;4.648;2023-02-17T15:14:17;4.80;;;1.90;;
48941;SDS011;35340;52.378;4.648;2023-02-17T15:16:44;5.82;;;1.95;;
48941;SDS011;35340;52.378;4.648;2023-02-17T15:19:12;6.35;;;2.15;;
48941;SDS011;35340;52.378;4.648;2023-02-17T15:21:39;5.97;;;2.30;;
48941;SDS011;35340;52.378;4.648;2023-02-17T15:24:14;6.20;;;2.08;;
48941;SDS011;35340;52.378;4.648;2023-02-17T15:26:48;5.25;;;1.95;;
48941;SDS011;35340;52.378;4.648;2023-02-17T15:29:18;5.15;;;1.90;;
48941;SDS011;35340;52.378;4.648;2023-02-17T15:31:45;4.10;;;1.92;;
48941;SDS011;35340;52.378;4.648;2023-02-17T15:34:15;5.85;;;2.10;;
48941;SDS011;35340;52.378;4.648;2023-02-17T15:36:47;6.30;;;2.65;;
48941;SDS011;35340;52.378;4.648;2023-02-17T15:39:14;7.28;;;2.80;;
48941;SDS011;35340;52.378;4.648;2023-02-17T15:41:43;6.88;;;2.40;;
48941;SDS011;35340;52.378;4.648;2023-02-17T15:44:31;8.13;;;2.30;;
48941;SDS011;35340;52.378;4.648;2023-02-17T15:47:03;9.27;;;2.30;;
48941;SDS011;35340;52.378;4.648;2023-02-17T15:49:39;9.02;;;2.13;;
48941;SDS011;35340;52.378;4.648;2023-02-17T15:52:08;8.55;;;2.33;;
48941;SDS011;35340;52.378;4.648;2023-02-17T15:54:36;8.13;;;2.85;;
48941;SDS011;35340;52.378;4.648;2023-02-17T15:57:04;6.80;;;2.22;;
48941;SDS011;35340;52.378;4.648;2023-02-17T15:59:32;7.38;;;2.38;;
48941;SDS011;35340;52.378;4.648;2023-02-17T16:02:01;6.30;;;1.83;;
48941;SDS011;35340;52.378;4.648;2023-02-17T16:04:27;7.72;;;2.28;;
48941;SDS011;35340;52.378;4.648;2023-02-17T16:06:53;6.35;;;2.15;;
48941;SDS011;35340;52.378;4.648;2023-02-17T16:09:18;5.03;;;1.88;;
48941;SDS011;35340;52.378;4.648;2023-02-17T16:11:48;8.10;;;2.10;;
48941;SDS011;35340;52.378;4.648;2023-02-17T16:14:22;6.47;;;2.25;;
48941;SDS011;35340;52.378;4.648;2023-02-17T16:16:51;4.40;;;1.88;;
48941;SDS011;35340;52.378;4.648;2023-02-17T16:19:36;4.55;;;1.90;;
48941;SDS011;35340;52.378;4.648;2023-02-17T16:22:09;5.50;;;1.88;;
48941;SDS011;35340;52.378;4.648;2023-02-17T16:24:50;5.95;;;2.10;;
48941;SDS011;35340;52.378;4.648;2023-02-17T16:27:19;5.65;;;2.28;;
48941;SDS011;35340;52.378;4.648;2023-02-17T16:29:44;5.82;;;2.30;;
48941;SDS011;35340;52.378;4.648;2023-02-17T16:32:10;4.55;;;1.85;;
48941;SDS011;35340;52.378;4.648;2023-02-17T16:34:36;5.32;;;1.85;;
48941;SDS011;35340;52.378;4.648;2023-02-17T16:37:02;4.43;;;1.80;;
48941;SDS011;35340;52.378;4.648;2023-02-17T16:39:35;6.25;;;2.15;;
48941;SDS011;35340;52.378;4.648;2023-02-17T16:42:03;4.70;;;2.00;;
48941;SDS011;35340;52.378;4.648;2023-02-17T16:44:29;4.82;;;2.20;;
48941;SDS011;35340;52.378;4.648;2023-02-17T16:46:55;4.63;;;1.90;;
48941;SDS011;35340;52.378;4.648;2023-02-17T16:49:32;4.45;;;1.70;;
48941;SDS011;35340;52.378;4.648;2023-02-17T16:52:19;4.18;;;1.63;;
48941;SDS011;35340;52.378;4.648;2023-02-17T16:54:48;5.40;;;2.10;;
48941;SDS011;35340;52.378;4.648;2023-02-17T16:57:14;5.03;;;1.98;;
48941;SDS011;35340;52.378;4.648;2023-02-17T16:59:42;5.68;;;2.03;;
48941;SDS011;35340;52.378;4.648;2023-02-17T17:02:08;4.40;;;1.75;;
48941;SDS011;35340;52.378;4.648;2023-02-17T17:04:35;4.32;;;1.80;;
48941;SDS011;35340;52.378;4.648;2023-02-17T17:07:01;4.30;;;1.90;;
48941;SDS011;35340;52.378;4.648;2023-02-17T17:09:27;3.55;;;1.73;;